LJLJ/LJU METAR and TAF weather

Enter ICAO airport designator
Station Type Date Time Source
LJLJ METAR 2020/04/02 00:30 UTC NOAA

LJLJ 020030Z VRB01KT CAVOK M04/M06 Q1017 NOSIG


Station Type Date Time Source
LJLJ Decoded METAR 2020/04/02 00:30 UTC NOAA

Ljubljana / Brnik, Slovenia (LJLJ) 46-13N 014-29E 362M
Apr 01, 2020 - 08:30 PM EDT / 2020.04.02 0030 UTC
Wind: Variable at 1 MPH (1 KT):0
Visibility: greater than 7 mile(s):0
Temperature: 24 F (-4 C)
Dew Point: 21 F (-6 C)
Relative Humidity: 85%
Pressure (altimeter): 30.03 in. Hg (1017 hPa)
ob: LJLJ 020030Z VRB01KT CAVOK M04/M06 Q1017 NOSIG
cycle: 0

Station Type Date Time Source
LJLJ TAF 2020/04/01 18:06 UTC NOAA

TAF LJLJ 011700Z 0118/0218 VRB02KT 9999 FEW060

Example: see airport list